createdAt,value
2023-01-27T00:01:37.213Z,31.87
2023-01-27T00:04:05.593Z,26.50
2023-01-27T00:06:37.962Z,31.43
2023-01-27T00:09:06.350Z,33.67
2023-01-27T00:11:57.778Z,29.97
2023-01-27T00:14:26.175Z,32.83
2023-01-27T00:16:54.566Z,32.23
2023-01-27T00:19:23.006Z,37.50
2023-01-27T00:22:10.193Z,30.77
2023-01-27T00:24:38.594Z,34.17
2023-01-27T00:27:08.924Z,31.57
2023-01-27T00:29:40.030Z,30.73
2023-01-27T00:32:25.847Z,28.77
2023-01-27T00:34:54.242Z,35.20
2023-01-27T00:37:24.069Z,33.43
2023-01-27T00:39:54.718Z,33.00
2023-01-27T00:42:23.187Z,27.27
2023-01-27T00:45:05.548Z,33.90
2023-01-27T00:47:34.292Z,30.47
2023-01-27T00:50:02.814Z,32.67
2023-01-27T00:52:32.589Z,26.60
2023-01-27T00:55:01.238Z,32.13
2023-01-27T00:57:30.428Z,32.33
2023-01-27T00:59:59.839Z,31.20
2023-01-27T01:02:28.466Z,27.70
2023-01-27T01:04:57.159Z,30.87
2023-01-27T01:07:25.626Z,34.20
2023-01-27T01:09:55.407Z,32.13
2023-01-27T01:12:24.065Z,30.43
2023-01-27T01:14:54.061Z,31.50
2023-01-27T01:17:23.860Z,29.33
2023-01-27T01:19:52.272Z,28.43
2023-01-27T01:22:20.876Z,34.50
2023-01-27T01:24:49.343Z,36.70
2023-01-27T01:27:19.095Z,35.93
2023-01-27T01:29:47.542Z,37.37
2023-01-27T01:32:15.962Z,36.10
2023-01-27T01:34:45.190Z,37.57
2023-01-27T01:37:13.626Z,32.70
2023-01-27T01:39:43.014Z,41.07
2023-01-27T01:42:11.511Z,37.10
2023-01-27T01:44:46.076Z,35.97
2023-01-27T01:47:17.277Z,37.57
2023-01-27T01:49:47.526Z,38.13
2023-01-27T01:52:21.222Z,38.87
2023-01-27T01:54:50.723Z,34.53
2023-01-27T01:57:23.277Z,40.50
2023-01-27T01:59:55.987Z,31.23
2023-01-27T02:02:26.583Z,38.63
2023-01-27T02:04:56.711Z,33.77
2023-01-27T02:07:28.582Z,36.57
2023-01-27T02:09:58.000Z,39.43
2023-01-27T02:12:26.410Z,38.93
2023-01-27T02:14:56.371Z,41.20
2023-01-27T02:17:25.022Z,36.23
2023-01-27T02:19:57.537Z,39.67
2023-01-27T02:22:29.198Z,34.87
2023-01-27T02:25:01.484Z,37.57
2023-01-27T02:27:31.256Z,41.80
2023-01-27T02:30:01.174Z,32.87
2023-01-27T02:32:29.691Z,37.97
2023-01-27T02:34:58.358Z,36.10
2023-01-27T02:37:27.513Z,34.37
2023-01-27T02:39:57.323Z,42.43
2023-01-27T02:42:25.756Z,41.90
2023-01-27T02:44:55.507Z,37.33
2023-01-27T02:47:23.943Z,30.30
2023-01-27T02:49:54.400Z,35.87
2023-01-27T02:52:24.001Z,35.17
2023-01-27T02:54:54.086Z,38.00
2023-01-27T02:57:22.454Z,39.57
2023-01-27T03:00:13.255Z,38.70
2023-01-27T03:02:41.807Z,42.03
2023-01-27T03:05:11.329Z,40.17
2023-01-27T03:07:40.008Z,41.47
2023-01-27T03:10:08.925Z,41.97
2023-01-27T03:12:37.484Z,46.13
2023-01-27T03:15:23.950Z,47.10
2023-01-27T03:18:12.744Z,37.40
2023-01-27T03:20:42.195Z,43.60
2023-01-27T03:23:10.909Z,45.03
2023-01-27T03:25:42.739Z,42.73
2023-01-27T03:28:11.622Z,38.40
2023-01-27T03:30:53.958Z,37.27
2023-01-27T03:33:31.829Z,42.87
2023-01-27T03:36:22.092Z,40.10
2023-01-27T03:39:10.298Z,40.47
2023-01-27T03:41:56.421Z,41.80
2023-01-27T03:44:45.431Z,43.40
2023-01-27T03:47:13.830Z,40.60
2023-01-27T03:49:43.674Z,42.73
2023-01-27T03:52:12.045Z,41.60
2023-01-27T03:54:40.383Z,39.63
2023-01-27T03:57:09.241Z,40.80
2023-01-27T03:59:37.604Z,40.47
2023-01-27T04:02:23.616Z,37.93
2023-01-27T04:05:10.972Z,37.20
2023-01-27T04:07:42.915Z,36.03
2023-01-27T04:10:12.096Z,35.47
2023-01-27T04:12:39.459Z,29.77
2023-01-27T04:15:08.638Z,34.00
2023-01-27T04:17:38.841Z,32.60
2023-01-27T04:20:09.574Z,32.03
2023-01-27T04:22:38.009Z,31.90
2023-01-27T04:25:06.817Z,36.50
2023-01-27T04:27:35.416Z,30.67
2023-01-27T04:30:04.913Z,31.07
2023-01-27T04:32:33.317Z,34.87
2023-01-27T04:35:02.013Z,32.77
2023-01-27T04:37:32.021Z,35.43
2023-01-27T04:40:00.415Z,35.87
2023-01-27T04:42:28.984Z,29.23
2023-01-27T04:44:57.376Z,37.60
2023-01-27T04:47:25.777Z,38.23
2023-01-27T04:49:54.163Z,36.53
2023-01-27T04:52:22.664Z,35.97
2023-01-27T04:54:52.415Z,37.50
2023-01-27T04:57:20.778Z,34.40
2023-01-27T04:59:50.091Z,33.63
2023-01-27T05:02:18.479Z,40.13
2023-01-27T05:04:46.847Z,37.43
2023-01-27T05:07:15.174Z,37.17
2023-01-27T05:09:43.630Z,42.10
2023-01-27T05:12:13.337Z,36.23
2023-01-27T05:14:41.707Z,44.57
2023-01-27T05:17:10.252Z,34.70
2023-01-27T05:19:38.619Z,40.37
2023-01-27T05:22:07.295Z,39.17
2023-01-27T05:24:35.709Z,38.83
2023-01-27T05:27:04.256Z,37.50
2023-01-27T05:29:34.058Z,39.57
2023-01-27T05:32:02.535Z,38.53
2023-01-27T05:34:30.930Z,37.00
2023-01-27T05:36:59.313Z,41.87
2023-01-27T05:39:27.760Z,41.80
2023-01-27T05:41:56.145Z,45.20
2023-01-27T05:44:24.539Z,44.77
2023-01-27T05:46:54.314Z,36.10
2023-01-27T05:49:22.715Z,38.97
2023-01-27T05:51:51.116Z,34.17
2023-01-27T05:54:19.569Z,44.70
2023-01-27T05:56:48.043Z,32.47
2023-01-27T05:59:16.441Z,34.10
2023-01-27T06:01:44.960Z,36.27
2023-01-27T06:04:16.053Z,30.53
2023-01-27T06:06:44.425Z,34.90
2023-01-27T06:09:12.844Z,31.63
2023-01-27T06:11:41.260Z,33.17
2023-01-27T06:14:09.799Z,41.23
2023-01-27T06:16:38.350Z,45.13
2023-01-27T06:19:06.933Z,40.67
2023-01-27T06:21:39.951Z,45.70
2023-01-27T06:24:08.904Z,44.73
2023-01-27T06:26:37.617Z,43.50
2023-01-27T06:29:06.053Z,46.90
2023-01-27T06:31:34.550Z,48.20
2023-01-27T06:34:03.189Z,44.90
2023-01-27T06:36:31.620Z,43.90
2023-01-27T06:39:01.370Z,44.93
2023-01-27T06:41:33.181Z,39.13
2023-01-27T06:44:01.968Z,36.13
2023-01-27T06:46:30.374Z,43.27
2023-01-27T06:48:59.016Z,36.80
2023-01-27T06:51:27.458Z,42.47
2023-01-27T06:53:55.856Z,41.03
2023-01-27T06:56:25.583Z,30.73
2023-01-27T06:58:53.971Z,32.57
2023-01-27T07:01:22.812Z,32.63
2023-01-27T07:03:51.408Z,33.93
2023-01-27T07:06:20.352Z,41.47
2023-01-27T07:08:50.503Z,36.93
2023-01-27T07:11:19.155Z,37.77
2023-01-27T07:13:48.935Z,34.63
2023-01-27T07:16:17.347Z,40.57
2023-01-27T07:18:45.989Z,44.73
2023-01-27T07:21:14.799Z,43.53
2023-01-27T07:23:43.526Z,42.93
2023-01-27T07:26:24.261Z,45.07
2023-01-27T07:28:54.568Z,39.67
2023-01-27T07:31:23.134Z,46.03
2023-01-27T07:33:51.618Z,44.03
2023-01-27T07:36:20.097Z,38.43
2023-01-27T07:38:50.872Z,38.33
2023-01-27T07:41:19.740Z,44.27
2023-01-27T07:43:48.214Z,42.47
2023-01-27T07:46:21.067Z,42.10
2023-01-27T07:48:49.515Z,39.30
2023-01-27T07:51:18.035Z,43.23
2023-01-27T07:53:46.521Z,44.23
2023-01-27T07:56:15.234Z,44.17
2023-01-27T07:58:44.115Z,44.13
2023-01-27T08:01:13.256Z,47.60
2023-01-27T08:03:43.125Z,40.20
2023-01-27T08:06:12.808Z,43.97
2023-01-27T08:08:41.712Z,42.17
2023-01-27T08:11:10.823Z,44.67
2023-01-27T08:13:40.406Z,38.83
2023-01-27T08:16:13.987Z,41.07
2023-01-27T08:18:45.258Z,47.43
2023-01-27T08:21:15.707Z,42.80
2023-01-27T08:23:45.611Z,42.93
2023-01-27T08:26:15.525Z,40.47
2023-01-27T08:28:45.563Z,49.47
2023-01-27T08:31:16.222Z,43.77
2023-01-27T08:33:48.014Z,42.97
2023-01-27T08:36:20.985Z,42.80
2023-01-27T08:38:50.544Z,46.07
2023-01-27T08:41:20.680Z,44.37
2023-01-27T08:43:50.475Z,49.93
2023-01-27T08:46:20.350Z,51.07
2023-01-27T08:48:52.245Z,50.47
2023-01-27T08:51:21.941Z,49.33
2023-01-27T08:53:51.582Z,49.23
2023-01-27T08:56:21.589Z,46.23
2023-01-27T08:58:52.779Z,47.73
2023-01-27T09:01:23.246Z,42.10
2023-01-27T09:03:53.393Z,44.67
2023-01-27T09:06:22.844Z,38.47
2023-01-27T09:09:11.235Z,40.00
2023-01-27T09:11:41.576Z,40.93
2023-01-27T09:14:10.172Z,41.93
2023-01-27T09:16:38.781Z,43.37
2023-01-27T09:19:08.599Z,43.90
2023-01-27T09:21:37.048Z,44.20
2023-01-27T09:24:05.478Z,46.17
2023-01-27T09:26:33.896Z,48.33
2023-01-27T09:29:02.271Z,54.60
2023-01-27T09:31:30.806Z,37.27
2023-01-27T09:33:59.340Z,37.43
2023-01-27T09:36:29.722Z,41.83
2023-01-27T09:39:00.893Z,37.70
2023-01-27T09:41:41.773Z,38.93
2023-01-27T09:44:18.111Z,36.97
2023-01-27T09:46:59.905Z,43.93
2023-01-27T09:49:36.187Z,36.47
2023-01-27T09:52:12.092Z,35.13
2023-01-27T09:54:49.851Z,46.90
2023-01-27T09:57:22.888Z,38.80
2023-01-27T09:59:57.214Z,34.40
2023-01-27T10:02:37.426Z,45.03
2023-01-27T10:05:19.534Z,42.07
2023-01-27T10:07:56.879Z,45.47
2023-01-27T10:10:34.949Z,43.07
2023-01-27T10:13:12.689Z,40.40
2023-01-27T10:15:51.655Z,37.97
2023-01-27T10:18:29.203Z,39.20
2023-01-27T10:21:01.340Z,43.20
2023-01-27T10:23:36.579Z,42.70
2023-01-27T10:26:09.276Z,38.13
2023-01-27T10:28:39.569Z,41.40
2023-01-27T10:31:13.197Z,41.93
2023-01-27T10:33:47.067Z,35.73
2023-01-27T10:36:18.150Z,38.60
2023-01-27T10:38:49.932Z,38.30
2023-01-27T10:41:23.588Z,37.33
2023-01-27T10:44:00.116Z,36.50
2023-01-27T10:46:34.084Z,36.83
2023-01-27T10:49:05.239Z,36.57
2023-01-27T10:51:36.492Z,38.13
2023-01-27T10:54:09.899Z,37.43
2023-01-27T10:56:42.589Z,41.87
2023-01-27T10:59:14.340Z,39.40
2023-01-27T11:01:45.172Z,40.37
2023-01-27T11:04:16.839Z,40.67
2023-01-27T11:06:46.583Z,40.67
2023-01-27T11:09:19.085Z,40.83
2023-01-27T11:11:49.237Z,46.50
2023-01-27T11:14:19.408Z,41.93
2023-01-27T11:16:50.108Z,42.47
2023-01-27T11:19:28.009Z,41.90
2023-01-27T11:22:07.531Z,43.30
2023-01-27T11:24:44.517Z,44.80
2023-01-27T11:27:15.763Z,48.07
2023-01-27T11:29:48.319Z,48.73
2023-01-27T11:32:20.746Z,45.70
2023-01-27T11:34:55.687Z,49.63
2023-01-27T11:37:25.602Z,47.23
2023-01-27T11:39:56.190Z,41.37
2023-01-27T11:42:25.767Z,47.67
2023-01-27T11:44:56.333Z,47.97
2023-01-27T11:47:25.973Z,48.53
2023-01-27T11:49:54.851Z,44.17
2023-01-27T11:52:27.239Z,47.20
2023-01-27T11:54:59.642Z,47.83
2023-01-27T11:57:29.518Z,42.83
2023-01-27T12:00:01.159Z,50.70
2023-01-27T12:02:32.513Z,49.87
2023-01-27T12:05:04.954Z,48.83
2023-01-27T12:07:39.474Z,49.00
2023-01-27T12:10:22.667Z,46.47
2023-01-27T12:12:51.196Z,42.57
2023-01-27T12:15:21.850Z,43.53
2023-01-27T12:17:53.327Z,46.80
2023-01-27T12:20:28.102Z,43.00
2023-01-27T12:22:59.061Z,41.73
2023-01-27T12:25:30.161Z,39.77
2023-01-27T12:28:01.085Z,36.20
2023-01-27T12:30:31.331Z,35.57
2023-01-27T12:33:00.651Z,39.03
2023-01-27T12:35:30.872Z,43.27
2023-01-27T12:38:01.338Z,41.27
2023-01-27T12:40:31.610Z,41.70
2023-01-27T12:43:12.095Z,42.53
2023-01-27T12:45:40.903Z,40.47
2023-01-27T12:48:27.260Z,41.87
2023-01-27T12:50:56.612Z,40.80
2023-01-27T12:53:27.748Z,35.17
2023-01-27T12:56:00.381Z,43.87
2023-01-27T12:58:33.703Z,43.40
2023-01-27T13:01:02.836Z,38.57
2023-01-27T13:03:34.329Z,36.67
2023-01-27T13:06:02.869Z,39.20
2023-01-27T13:08:33.549Z,45.40
2023-01-27T13:11:05.063Z,43.60
2023-01-27T13:13:33.576Z,44.83
2023-01-27T13:16:05.178Z,46.20
2023-01-27T13:18:35.441Z,42.33
2023-01-27T13:21:09.273Z,40.00
2023-01-27T13:23:39.276Z,40.93
2023-01-27T13:26:12.454Z,45.87
2023-01-27T13:28:52.062Z,47.60
2023-01-27T13:31:24.077Z,49.57
2023-01-27T13:33:56.244Z,47.33
2023-01-27T13:36:29.528Z,43.63
2023-01-27T13:39:00.657Z,46.60
2023-01-27T13:41:34.612Z,43.20
2023-01-27T13:44:05.469Z,43.33
2023-01-27T13:46:38.431Z,45.40
2023-01-27T13:49:14.438Z,48.80
2023-01-27T13:51:42.999Z,47.00
2023-01-27T13:54:12.851Z,52.37
2023-01-27T13:56:50.551Z,44.50
2023-01-27T13:59:29.153Z,53.73
2023-01-27T14:02:01.810Z,48.77
2023-01-27T14:04:45.095Z,51.23
2023-01-27T14:07:19.811Z,50.43
2023-01-27T14:09:56.130Z,49.07
2023-01-27T14:12:31.900Z,47.50
2023-01-27T14:15:04.959Z,49.97
2023-01-27T14:17:39.969Z,48.80
2023-01-27T14:20:25.988Z,51.13
2023-01-27T14:23:00.404Z,52.27
2023-01-27T14:25:33.513Z,52.20
2023-01-27T14:28:10.733Z,47.33
2023-01-27T14:30:41.016Z,40.93
2023-01-27T14:33:14.247Z,56.27
2023-01-27T14:35:44.850Z,49.60
2023-01-27T14:38:18.041Z,48.97
2023-01-27T14:40:50.190Z,45.47
2023-01-27T14:43:24.013Z,43.43
2023-01-27T14:45:55.294Z,44.37
2023-01-27T14:48:28.460Z,47.37
2023-01-27T14:51:04.313Z,46.50
2023-01-27T14:53:39.396Z,46.87
2023-01-27T14:56:11.348Z,50.50
2023-01-27T14:58:46.081Z,42.83
2023-01-27T15:01:18.932Z,45.93
2023-01-27T15:03:53.281Z,44.17
2023-01-27T15:06:29.692Z,42.97
2023-01-27T15:09:03.793Z,41.20
2023-01-27T15:11:38.682Z,43.77
2023-01-27T15:14:19.036Z,41.97
2023-01-27T15:16:57.484Z,43.07
2023-01-27T15:19:55.713Z,37.60
2023-01-27T15:22:33.681Z,44.17
2023-01-27T15:25:20.111Z,42.50
2023-01-27T15:27:48.966Z,48.30
2023-01-27T15:30:25.751Z,42.63
2023-01-27T15:32:54.393Z,49.23
2023-01-27T15:35:41.115Z,46.70
2023-01-27T15:38:24.413Z,47.37
2023-01-27T15:40:57.856Z,46.50
2023-01-27T15:43:26.410Z,42.90
2023-01-27T15:45:58.301Z,46.33
2023-01-27T15:48:29.950Z,40.87
2023-01-27T15:51:01.471Z,39.00
2023-01-27T15:53:31.698Z,41.67
2023-01-27T15:56:01.514Z,42.00
2023-01-27T15:58:35.621Z,49.50
2023-01-27T16:01:07.392Z,53.47
2023-01-27T16:03:38.836Z,42.00
2023-01-27T16:06:09.860Z,43.73
2023-01-27T16:08:42.735Z,45.63
2023-01-27T16:11:24.037Z,53.27
2023-01-27T16:13:52.577Z,45.03
2023-01-27T16:16:31.708Z,49.53
2023-01-27T16:19:09.864Z,45.03
2023-01-27T16:21:47.610Z,45.07
2023-01-27T16:24:20.747Z,50.03
2023-01-27T16:26:51.202Z,47.77
2023-01-27T16:29:26.810Z,47.77
2023-01-27T16:32:00.300Z,50.90
2023-01-27T16:34:33.342Z,53.43
2023-01-27T16:37:06.307Z,48.40
2023-01-27T16:39:38.009Z,50.87
2023-01-27T16:42:06.667Z,56.53
2023-01-27T16:44:40.044Z,46.57
2023-01-27T16:47:17.049Z,47.30
2023-01-27T16:49:45.714Z,46.53
2023-01-27T16:52:19.917Z,44.87
2023-01-27T16:54:52.194Z,44.90
2023-01-27T16:57:33.869Z,40.67
2023-01-27T17:00:04.623Z,45.17
2023-01-27T17:02:35.053Z,43.67
2023-01-27T17:05:05.973Z,48.73
2023-01-27T17:07:34.729Z,45.33
2023-01-27T17:10:08.829Z,47.90
2023-01-27T17:12:38.086Z,49.80
2023-01-27T17:15:17.904Z,48.97
2023-01-27T17:17:47.778Z,49.10
2023-01-27T17:20:22.611Z,54.37
2023-01-27T17:22:54.283Z,48.87
2023-01-27T17:25:31.921Z,52.93
2023-01-27T17:28:01.831Z,52.80
2023-01-27T17:30:35.285Z,47.47
2023-01-27T17:33:07.195Z,50.53
2023-01-27T17:35:37.381Z,51.87
2023-01-27T17:38:09.161Z,49.07
2023-01-27T17:40:39.063Z,48.03
2023-01-27T17:43:23.689Z,52.97
2023-01-27T17:45:54.046Z,53.77
2023-01-27T17:48:23.815Z,59.47
2023-01-27T17:50:52.317Z,52.10
2023-01-27T17:53:24.763Z,56.60
2023-01-27T17:55:53.755Z,47.60
2023-01-27T17:58:24.430Z,53.27
2023-01-27T18:00:53.294Z,55.33
2023-01-27T18:03:24.766Z,46.53
2023-01-27T18:05:55.307Z,49.80
2023-01-27T18:08:24.000Z,53.47
2023-01-27T18:10:52.559Z,47.67
2023-01-27T18:13:36.747Z,45.03
2023-01-27T18:16:09.491Z,48.97
2023-01-27T18:18:38.016Z,51.83
2023-01-27T18:21:15.753Z,46.90
2023-01-27T18:23:45.354Z,49.13
2023-01-27T18:26:18.376Z,48.20
2023-01-27T18:28:47.391Z,52.47
2023-01-27T18:31:18.421Z,44.07
2023-01-27T18:33:47.367Z,51.93
2023-01-27T18:36:24.979Z,46.80
2023-01-27T18:38:54.469Z,45.63
2023-01-27T18:41:27.891Z,40.30
2023-01-27T18:43:59.022Z,45.57
2023-01-27T18:46:29.606Z,45.10
2023-01-27T18:49:01.562Z,44.63
2023-01-27T18:51:32.627Z,42.47
2023-01-27T18:54:01.710Z,42.83
2023-01-27T18:56:31.422Z,44.87
2023-01-27T18:58:59.888Z,46.80
2023-01-27T19:01:28.272Z,44.73
2023-01-27T19:03:58.285Z,45.93
2023-01-27T19:06:27.408Z,46.23
2023-01-27T19:08:57.224Z,43.90
2023-01-27T19:11:25.697Z,58.77
2023-01-27T19:13:54.159Z,49.33
2023-01-27T19:16:22.661Z,50.77
2023-01-27T19:18:51.194Z,43.43
2023-01-27T19:21:19.602Z,42.57
2023-01-27T19:23:49.582Z,36.67
2023-01-27T19:26:20.063Z,47.40
2023-01-27T19:28:49.266Z,45.77
2023-01-27T19:31:17.731Z,43.97
2023-01-27T19:33:47.533Z,46.50
2023-01-27T19:36:22.360Z,46.80
2023-01-27T19:38:51.129Z,45.00
2023-01-27T19:41:20.935Z,43.87
2023-01-27T19:43:50.080Z,41.93
2023-01-27T19:46:21.111Z,47.37
2023-01-27T19:48:51.079Z,41.77
2023-01-27T19:51:20.024Z,38.53
2023-01-27T19:53:48.545Z,40.57
2023-01-27T19:56:18.210Z,39.10
2023-01-27T19:58:50.010Z,47.57
2023-01-27T20:01:18.496Z,47.23
2023-01-27T20:03:46.967Z,44.07
2023-01-27T20:06:17.062Z,45.30
2023-01-27T20:08:45.551Z,43.27
2023-01-27T20:11:24.269Z,47.93
2023-01-27T20:13:53.986Z,39.03
2023-01-27T20:16:22.596Z,45.13
2023-01-27T20:18:51.123Z,45.00
2023-01-27T20:21:20.490Z,39.33
2023-01-27T20:23:48.879Z,43.50
2023-01-27T20:26:17.902Z,43.77
2023-01-27T20:28:46.858Z,39.87
2023-01-27T20:31:17.956Z,46.87
2023-01-27T20:33:50.052Z,44.43
2023-01-27T20:36:19.100Z,38.73
2023-01-27T20:38:47.553Z,43.07
2023-01-27T20:41:17.447Z,34.97
2023-01-27T20:43:45.859Z,44.13
2023-01-27T20:46:15.660Z,41.80
2023-01-27T20:48:46.622Z,43.43
2023-01-27T20:51:15.534Z,42.63
2023-01-27T20:53:45.853Z,36.57
2023-01-27T20:56:15.127Z,43.83
2023-01-27T20:58:43.549Z,41.70
2023-01-27T21:01:12.999Z,44.57
2023-01-27T21:03:41.628Z,47.80
2023-01-27T21:06:13.545Z,45.40
2023-01-27T21:08:44.323Z,45.80
2023-01-27T21:11:16.418Z,45.20
2023-01-27T21:13:46.837Z,43.73
2023-01-27T21:16:17.004Z,43.63
2023-01-27T21:18:46.478Z,40.73
2023-01-27T21:21:26.250Z,47.40
2023-01-27T21:23:56.127Z,43.37
2023-01-27T21:26:26.167Z,47.13
2023-01-27T21:28:55.748Z,49.10
2023-01-27T21:31:30.536Z,45.70
2023-01-27T21:34:01.679Z,42.50
2023-01-27T21:36:32.918Z,48.93
2023-01-27T21:39:02.860Z,49.77
2023-01-27T21:41:50.186Z,48.03
2023-01-27T21:44:38.277Z,47.37
2023-01-27T21:47:08.543Z,46.13
2023-01-27T21:49:59.183Z,50.57
2023-01-27T21:52:33.020Z,47.63
2023-01-27T21:55:04.774Z,52.60
2023-01-27T21:57:34.793Z,52.07
2023-01-27T22:00:05.660Z,53.73
2023-01-27T22:02:41.412Z,46.10
2023-01-27T22:05:10.454Z,49.63
2023-01-27T22:07:40.663Z,52.13
2023-01-27T22:10:10.359Z,46.47
2023-01-27T22:12:39.020Z,51.00
2023-01-27T22:15:07.905Z,50.97
2023-01-27T22:17:36.624Z,51.97
2023-01-27T22:20:05.250Z,47.13
2023-01-27T22:22:33.864Z,54.27
2023-01-27T22:25:03.683Z,53.20
2023-01-27T22:27:32.114Z,51.93
2023-01-27T22:30:00.585Z,55.53
2023-01-27T22:32:29.041Z,59.27
2023-01-27T22:34:57.487Z,62.40
2023-01-27T22:37:26.155Z,64.53
2023-01-27T22:39:54.550Z,56.27
2023-01-27T22:42:24.279Z,55.43
2023-01-27T22:44:52.691Z,63.20
2023-01-27T22:47:21.278Z,57.60
2023-01-27T22:49:49.663Z,61.10
2023-01-27T22:52:18.033Z,54.57
2023-01-27T22:54:46.560Z,62.17
2023-01-27T22:57:14.993Z,59.20
2023-01-27T22:59:44.746Z,57.83
2023-01-27T23:02:13.211Z,54.43
2023-01-27T23:04:41.653Z,52.33
2023-01-27T23:07:10.029Z,58.23
2023-01-27T23:09:38.424Z,58.50
2023-01-27T23:12:06.987Z,61.20
2023-01-27T23:14:36.327Z,52.20
2023-01-27T23:17:06.124Z,52.33
2023-01-27T23:19:34.493Z,42.17
2023-01-27T23:22:02.944Z,48.47
2023-01-27T23:24:31.362Z,48.73
2023-01-27T23:26:59.822Z,55.87
2023-01-27T23:29:29.319Z,54.87
2023-01-27T23:31:58.024Z,57.23
2023-01-27T23:34:27.840Z,58.90
2023-01-27T23:36:56.261Z,52.17
2023-01-27T23:39:24.773Z,56.77
2023-01-27T23:41:53.192Z,60.67
2023-01-27T23:44:21.679Z,60.13
2023-01-27T23:46:50.247Z,54.47
2023-01-27T23:49:18.981Z,55.23
2023-01-27T23:51:48.830Z,54.83
2023-01-27T23:54:17.375Z,51.07
2023-01-27T23:56:45.789Z,59.33
2023-01-27T23:59:14.566Z,58.10
